Weather at Marcos Paz Airfield

Public forecast

Using degrees Celsius for public forecast. Weather courtesy of forecast.io.

Closest aviation weather report (METAR) to Marcos Paz Airfield

Closest report is Minister Pistarini International Airport, 17.9 nm (33.1 km) E.

2024/05/29 08:00 (retrieved 44 minutes ago)

SAEZ 290800Z 02005KT 9999 BKN005 12/11 Q1023 NOSIG

Closest aviation forecast (TAF) to Marcos Paz Airfield

Closest forecast is Minister Pistarini International Airport, 17.9 nm (33.1 km) E.

2024/05/29 06:03 (retrieved 3 hours ago)

TAF SAEZ 290500Z 2906/3006 05006KT 5000 BR OVC005 TX16/2918Z TN09/2910Z BECMG 2906/2908 2000 BR OVC003 PROB30 TEMPO 2908/2911 0900 FG OVC002 BECMG 2911/2913 01005KT 7000 BKN020 BECMG 2914/2916 36010KT CAVOK BECMG 3001/3003 01005KT